Time;durP1;ratioP1;P1;durP2;ratioP2;P2;SDS_P1;SDS_P2;PMS_P1;PMS_P2;Temp;Humidity;BMP_temperature;BMP_pressure;BME280_temperature;BME280_humidity;BME280_pressure;Samples;Min_cycle;Max_cycle;Signal;HPM_P1;HPM_P2
2021/09/30 00:00:52;;;;;;;418.80;98.27;;;11.30;99.90;;;;;;5119709;28;20496;-79
2021/09/30 00:03:21;;;;;;;286.60;110.87;;;11.30;99.90;;;;;;5118995;28;20514;-79
2021/09/30 00:05:50;;;;;;;350.93;83.00;;;11.30;99.90;;;;;;5118917;28;20498;-79
2021/09/30 00:08:20;;;;;;;308.23;102.70;;;11.30;99.90;;;;;;5120253;28;20528;-79
2021/09/30 00:10:56;;;;;;;213.57;83.90;;;11.30;99.90;;;;;;5118281;28;20894;-78
2021/09/30 00:13:38;;;;;;;359.40;102.43;;;11.30;99.90;;;;;;5117876;28;20546;-79
2021/09/30 00:16:30;;;;;;;190.57;79.77;;;11.30;99.90;;;;;;5120945;28;20459;-80
2021/09/30 00:32:58;;;;;;;392.93;120.23;;;11.30;99.90;;;;;;5118424;28;20473;-79
2021/09/30 00:35:42;;;;;;;301.70;100.67;;;11.30;99.90;;;;;;5117806;28;20466;-79
2021/09/30 00:41:17;;;;;;;357.63;104.97;;;11.30;99.90;;;;;;5118695;28;20475;-79
2021/09/30 00:46:43;;;;;;;260.43;89.50;;;11.30;99.90;;;;;;5119673;28;20471;-79
2021/09/30 00:49:26;;;;;;;381.87;117.13;;;11.30;99.90;;;;;;5121651;28;20462;-79
2021/09/30 00:52:00;;;;;;;334.40;89.20;;;11.30;99.90;;;;;;5121944;28;20797;-79
2021/09/30 00:54:43;;;;;;;400.50;117.53;;;11.30;99.90;;;;;;5121918;28;20435;-78
2021/09/30 01:52:09;;;;;;;96.00;44.10;;;11.00;99.90;;;;;;5121285;28;20484;-79
2021/09/30 01:58:09;;;;;;;362.70;110.40;;;11.00;99.90;;;;;;5075448;28;20448;-79
2021/09/30 02:18:34;;;;;;;301.60;97.03;;;10.90;99.90;;;;;;5122263;28;20444;-79
2021/09/30 02:24:14;;;;;;;250.17;89.23;;;10.90;99.90;;;;;;5103022;28;20455;-79
2021/09/30 02:27:03;;;;;;;345.57;86.60;;;10.90;99.90;;;;;;5122755;28;20474;-79
2021/09/30 02:58:12;;;;;;;212.77;76.83;;;10.70;99.90;;;;;;5063739;28;20467;-80
2021/09/30 03:00:56;;;;;;;494.10;113.00;;;10.70;99.90;;;;;;5080615;28;20531;-80
2021/09/30 03:03:26;;;;;;;259.73;69.70;;;10.60;99.90;;;;;;5081658;28;20446;-81
2021/09/30 03:05:56;;;;;;;441.40;109.90;;;10.60;99.90;;;;;;5078615;28;20536;-79
2021/09/30 03:08:26;;;;;;;427.80;102.53;;;10.60;99.90;;;;;;5078281;28;20448;-79
2021/09/30 03:10:57;;;;;;;389.00;85.23;;;10.60;99.90;;;;;;5078342;28;20464;-79
2021/09/30 03:13:28;;;;;;;494.57;103.30;;;10.60;99.90;;;;;;5093969;28;20493;-79
2021/09/30 03:15:59;;;;;;;282.63;81.10;;;10.60;99.90;;;;;;5098074;28;20474;-79
2021/09/30 03:18:48;;;;;;;528.77;98.00;;;10.60;99.90;;;;;;5098510;28;20450;-79
2021/09/30 03:24:02;;;;;;;197.07;77.87;;;10.60;99.90;;;;;;5054565;28;20443;-79
2021/09/30 03:26:33;;;;;;;422.53;98.37;;;10.50;99.90;;;;;;5096390;28;20463;-79
2021/09/30 03:29:02;;;;;;;239.13;89.60;;;10.50;99.90;;;;;;5096298;28;20495;-78
2021/09/30 03:31:32;;;;;;;41.97;37.47;;;10.50;99.90;;;;;;5095595;28;20509;-79
2021/09/30 03:34:30;;;;;;;552.73;149.10;;;10.60;99.90;;;;;;5043371;28;20440;-80
2021/09/30 03:37:00;;;;;;;24.73;19.05;;;10.50;99.90;;;;;;5098729;28;20957;-79
2021/09/30 03:39:30;;;;;;;1066.77;289.30;;;10.60;99.90;;;;;;5100248;28;20211;-80
2021/09/30 03:41:59;;;;;;;399.97;106.87;;;10.60;99.90;;;;;;5096459;28;20535;-80
2021/09/30 03:44:35;;;;;;;447.43;95.30;;;10.60;99.90;;;;;;5085702;28;20440;-79
2021/09/30 03:47:05;;;;;;;174.63;63.73;;;10.50;99.90;;;;;;5084564;28;20478;-80
2021/09/30 03:49:49;;;;;;;409.77;105.63;;;10.50;99.90;;;;;;5084268;28;20445;-78
2021/09/30 03:52:24;;;;;;;306.10;96.73;;;10.50;99.90;;;;;;5083080;28;20496;-79
2021/09/30 03:55:04;;;;;;;219.93;79.00;;;10.50;99.90;;;;;;5083556;28;20447;-79
2021/09/30 03:57:49;;;;;;;469.87;109.13;;;10.50;99.90;;;;;;5085824;28;20436;-80
2021/09/30 04:00:18;;;;;;;244.07;71.77;;;10.50;99.90;;;;;;5084355;28;20655;-80
2021/09/30 04:02:51;;;;;;;238.67;83.37;;;10.40;99.90;;;;;;5083155;28;20544;-79
2021/09/30 04:05:20;;;;;;;455.57;101.90;;;10.40;99.90;;;;;;5082504;28;20454;-78
2021/09/30 04:07:49;;;;;;;370.30;110.50;;;10.30;99.90;;;;;;5104170;28;20468;-80
2021/09/30 04:10:18;;;;;;;281.73;81.43;;;10.40;99.90;;;;;;5085331;28;20436;-80
2021/09/30 04:12:48;;;;;;;286.57;95.07;;;10.40;99.90;;;;;;5083514;28;20468;-79
2021/09/30 04:15:17;;;;;;;312.20;92.47;;;10.40;99.90;;;;;;5082553;28;20444;-79
2021/09/30 04:17:46;;;;;;;101.05;66.63;;;10.40;99.90;;;;;;5082410;28;20445;-79
2021/09/30 04:20:23;;;;;;;452.97;121.83;;;10.40;99.90;;;;;;5084242;28;20178;-79
2021/09/30 04:23:03;;;;;;;109.53;34.13;;;10.40;99.90;;;;;;5080540;28;20518;-79
2021/09/30 04:25:34;;;;;;;306.70;101.90;;;10.40;99.90;;;;;;5084873;28;20221;-80
2021/09/30 04:28:05;;;;;;;275.03;96.20;;;10.40;99.90;;;;;;5084976;28;20452;-80
2021/09/30 04:30:36;;;;;;;555.13;103.77;;;10.40;99.90;;;;;;5085878;28;20487;-80
2021/09/30 04:33:25;;;;;;;391.10;105.00;;;10.40;99.90;;;;;;5083723;28;20440;-80
2021/09/30 04:35:56;;;;;;;301.40;81.40;;;10.40;99.90;;;;;;5085123;28;20468;-80
2021/09/30 04:38:27;;;;;;;213.73;69.20;;;10.30;99.90;;;;;;5082957;28;20494;-79
2021/09/30 04:40:56;;;;;;;241.33;78.23;;;10.30;99.90;;;;;;5083541;28;20973;-80
2021/09/30 04:43:24;;;;;;;252.73;86.50;;;10.30;99.90;;;;;;5083797;28;20478;-79
2021/09/30 04:45:53;;;;;;;369.47;97.67;;;10.30;99.90;;;;;;5083511;28;20456;-79
2021/09/30 04:48:21;;;;;;;531.03;119.23;;;10.30;99.90;;;;;;5084826;28;20452;-80
2021/09/30 04:51:04;;;;;;;421.17;103.60;;;10.30;99.90;;;;;;5084251;28;20953;-79
2021/09/30 04:53:34;;;;;;;146.97;59.33;;;10.30;99.90;;;;;;5082340;28;20906;-80
2021/09/30 04:56:04;;;;;;;554.70;120.40;;;10.30;99.90;;;;;;5082338;28;20467;-79
2021/09/30 04:58:38;;;;;;;15.68;12.05;;;10.20;99.90;;;;;;5080466;28;20472;-79
2021/09/30 05:01:08;;;;;;;968.80;257.80;;;10.30;99.90;;;;;;5083015;28;20240;-79
2021/09/30 05:03:45;;;;;;;9.10;6.35;;;10.40;99.90;;;;;;5082819;28;20440;-79
2021/09/30 05:06:13;;;;;;;1009.53;283.20;;;10.40;99.90;;;;;;5083850;28;20223;-80
2021/09/30 05:08:45;;;;;;;365.33;111.27;;;10.40;99.90;;;;;;5086260;28;20474;-80
2021/09/30 05:11:14;;;;;;;344.87;79.70;;;10.40;99.90;;;;;;5085118;28;20448;-80
2021/09/30 05:13:44;;;;;;;477.77;112.20;;;10.30;99.90;;;;;;5084398;28;20564;-80
2021/09/30 05:16:17;;;;;;;171.97;57.43;;;10.30;99.90;;;;;;5083935;28;20472;-79
2021/09/30 05:19:05;;;;;;;112.33;45.67;;;10.30;99.90;;;;;;5101781;28;20549;-79
2021/09/30 05:21:35;;;;;;;561.53;128.60;;;10.30;99.90;;;;;;5082155;28;20448;-79
2021/09/30 05:24:05;;;;;;;264.40;73.33;;;10.20;99.90;;;;;;5082284;28;20470;-79
2021/09/30 05:26:33;;;;;;;387.20;88.70;;;10.30;99.90;;;;;;5083236;28;20525;-79
2021/09/30 05:29:02;;;;;;;440.57;94.27;;;10.20;99.90;;;;;;5081950;28;20501;-80
2021/09/30 05:31:32;;;;;;;247.63;76.43;;;10.30;99.90;;;;;;5083072;28;20456;-80
2021/09/30 05:34:26;;;;;;;408.77;95.47;;;10.20;99.90;;;;;;5097271;28;20440;-80
2021/09/30 05:36:54;;;;;;;451.73;123.67;;;10.30;99.90;;;;;;5083877;28;20470;-80
2021/09/30 05:39:24;;;;;;;11.10;9.90;;;10.30;99.90;;;;;;5080774;28;20519;-79
2021/09/30 05:41:54;;;;;;;1212.80;310.73;;;10.40;99.90;;;;;;5082308;28;20186;-79
2021/09/30 05:44:24;;;;;;;17.58;13.30;;;10.40;99.90;;;;;;5081161;28;20789;-79
2021/09/30 05:46:55;;;;;;;1171.17;319.77;;;10.40;99.90;;;;;;5082223;28;20232;-79
2021/09/30 05:49:24;;;;;;;346.80;100.10;;;10.40;99.90;;;;;;5080986;28;20501;-80
2021/09/30 05:52:18;;;;;;;191.87;59.40;;;10.40;99.90;;;;;;5098854;28;20504;-80
2021/09/30 05:55:07;;;;;;;522.20;118.23;;;10.30;99.90;;;;;;5081359;28;20803;-79
2021/09/30 05:57:36;;;;;;;476.97;100.40;;;10.30;99.90;;;;;;5080699;28;20453;-79
2021/09/30 06:00:12;;;;;;;473.63;100.00;;;10.30;99.90;;;;;;5081621;28;20924;-79
2021/09/30 06:10:59;;;;;;;471.90;106.13;;;10.30;99.90;;;;;;5082419;28;20470;-79
2021/09/30 06:13:32;;;;;;;478.87;107.97;;;10.30;99.90;;;;;;5082146;28;20509;-80
2021/09/30 06:16:05;;;;;;;319.47;80.80;;;10.30;99.90;;;;;;5100402;28;20513;-79
2021/09/30 06:18:35;;;;;;;242.37;89.00;;;10.30;99.90;;;;;;5082577;28;20448;-79
2021/09/30 06:21:04;;;;;;;543.47;111.37;;;10.30;99.90;;;;;;5081550;28;20450;-78
2021/09/30 06:23:32;;;;;;;355.67;99.10;;;10.40;99.90;;;;;;5080692;28;20448;-79
2021/09/30 06:26:02;;;;;;;198.97;78.60;;;10.40;99.90;;;;;;5080105;28;20506;-79
2021/09/30 06:28:39;;;;;;;299.98;161.02;;;10.50;99.90;;;;;;5079651;28;20454;-78
2021/09/30 06:31:08;;;;;;;547.23;154.67;;;10.50;99.90;;;;;;5080696;28;20292;-79
2021/09/30 06:34:12;;;;;;;219.02;137.10;;;10.60;99.90;;;;;;5035580;28;20453;-79
2021/09/30 06:36:55;;;;;;;452.80;136.13;;;10.60;99.90;;;;;;5074104;28;20275;-78
2021/09/30 06:39:26;;;;;;;51.27;27.57;;;10.60;99.90;;;;;;5080527;28;20479;-79
2021/09/30 06:41:55;;;;;;;149.77;56.87;;;10.60;99.90;;;;;;5099506;28;21009;-79
2021/09/30 06:44:42;;;;;;;292.80;95.17;;;10.60;99.90;;;;;;5098068;28;20416;-79
2021/09/30 06:47:48;;;;;;;109.67;51.03;;;10.60;99.90;;;;;;4996719;28;20444;-79
2021/09/30 06:50:29;;;;;;;249.40;92.50;;;10.60;99.90;;;;;;4996761;28;20471;-79
2021/09/30 06:52:59;;;;;;;406.30;123.87;;;10.70;99.90;;;;;;5054966;28;20476;-79
2021/09/30 06:55:58;;;;;;;57.70;30.57;;;10.70;99.90;;;;;;5080590;28;20472;-79
2021/09/30 06:58:48;;;;;;;91.10;41.53;;;10.70;99.90;;;;;;5058104;28;20437;-81
2021/09/30 07:01:31;;;;;;;99.60;44.53;;;10.70;99.90;;;;;;5099136;28;20431;-79
2021/09/30 07:04:06;;;;;;;87.17;59.73;;;10.80;99.90;;;;;;5100003;28;20421;-79
2021/09/30 07:07:06;;;;;;;490.97;159.20;;;10.80;99.90;;;;;;5066074;28;20479;-79
2021/09/30 07:09:34;;;;;;;404.53;125.47;;;10.80;99.90;;;;;;5081688;28;20456;-79
2021/09/30 07:12:04;;;;;;;171.27;69.87;;;10.80;99.90;;;;;;5081575;28;20493;-80
2021/09/30 07:14:33;;;;;;;247.73;96.27;;;10.90;99.90;;;;;;5082085;28;20468;-80
2021/09/30 07:17:04;;;;;;;384.07;131.97;;;10.90;99.90;;;;;;5099508;28;20471;-79
2021/09/30 07:19:33;;;;;;;141.35;68.55;;;10.90;99.90;;;;;;5084889;28;20929;-80
2021/09/30 07:22:02;;;;;;;1999.90;981.50;;;11.10;99.90;;;;;;5084634;28;20225;-79
2021/09/30 07:24:31;;;;;;;80.40;54.45;;;11.10;99.90;;;;;;5083561;28;20439;-79
2021/09/30 07:27:01;;;;;;;1999.90;984.27;;;11.20;99.90;;;;;;5085936;28;20317;-79
2021/09/30 07:29:34;;;;;;;584.00;147.87;;;11.20;99.90;;;;;;5105708;28;20420;-80
2021/09/30 07:32:04;;;;;;;292.30;122.83;;;11.20;99.90;;;;;;5086145;28;20451;-79
2021/09/30 07:34:33;;;;;;;258.80;107.87;;;11.20;99.90;;;;;;5085484;28;20474;-80
2021/09/30 07:37:04;;;;;;;360.53;108.67;;;11.20;99.90;;;;;;5105599;28;20491;-80
2021/09/30 07:39:33;;;;;;;430.50;149.57;;;11.30;99.90;;;;;;5084879;28;20494;-79
2021/09/30 07:42:02;;;;;;;179.67;81.27;;;11.30;99.90;;;;;;5085948;28;20444;-79
2021/09/30 07:44:33;;;;;;;30.13;20.53;;;11.30;99.90;;;;;;5084977;28;20451;-80
2021/09/30 07:47:06;;;;;;;374.53;145.20;;;11.40;99.90;;;;;;5084466;28;20555;-79
2021/09/30 07:49:35;;;;;;;299.23;129.90;;;11.40;99.90;;;;;;5085111;28;20444;-79
2021/09/30 07:52:04;;;;;;;74.23;47.77;;;11.50;99.90;;;;;;5083885;28;20444;-79
2021/09/30 07:54:32;;;;;;;130.20;72.43;;;11.60;99.90;;;;;;5084401;28;20566;-79
2021/09/30 07:57:01;;;;;;;396.67;155.17;;;11.70;99.90;;;;;;5103265;28;20460;-79
2021/09/30 07:59:29;;;;;;;250.80;107.47;;;11.80;99.90;;;;;;5082649;28;20481;-79
2021/09/30 08:01:57;;;;;;;885.80;304.97;;;11.90;99.90;;;;;;5083737;28;20440;-79
2021/09/30 08:04:27;;;;;;;834.97;339.67;;;12.00;99.90;;;;;;5083403;28;20535;-78
2021/09/30 08:06:56;;;;;;;1999.90;999.90;;;12.20;99.90;;;;;;5082482;28;20530;-79
2021/09/30 08:09:24;;;;;;;1999.90;477.97;;;12.30;99.90;;;;;;5083200;28;20452;-79
2021/09/30 08:11:56;;;;;;;1999.90;741.25;;;12.40;99.90;;;;;;5083006;28;20393;-79
2021/09/30 08:14:25;;;;;;;1999.90;760.40;;;12.60;99.90;;;;;;5082886;28;20214;-79
2021/09/30 08:16:53;;;;;;;1999.90;826.77;;;12.70;99.90;;;;;;5082906;28;20463;-79
2021/09/30 08:19:21;;;;;;;1999.90;932.23;;;12.80;99.90;;;;;;5083033;28;20459;-79
2021/09/30 08:21:51;;;;;;;1999.90;787.63;;;12.90;99.90;;;;;;5082542;28;20471;-78
2021/09/30 08:24:21;;;;;;;1999.90;902.17;;;13.00;99.90;;;;;;5101311;28;20444;-79
2021/09/30 08:26:51;;;;;;;1999.90;826.70;;;13.10;99.90;;;;;;5082997;28;20460;-79
2021/09/30 08:29:21;;;;;;;1999.90;999.90;;;13.20;99.90;;;;;;5100383;28;20416;-79
2021/09/30 08:31:50;;;;;;;1999.90;832.87;;;13.30;99.90;;;;;;5100589;28;20487;-79
2021/09/30 08:34:18;;;;;;;1999.90;896.80;;;13.40;99.90;;;;;;5083068;28;21008;-79
2021/09/30 08:36:46;;;;;;;1999.90;840.40;;;13.50;99.90;;;;;;5082560;28;20474;-79
2021/09/30 08:39:16;;;;;;;1999.90;837.60;;;13.60;99.90;;;;;;5082016;28;20536;-79
2021/09/30 08:41:44;;;;;;;1999.90;924.00;;;13.70;99.90;;;;;;5081374;28;20812;-80
2021/09/30 08:44:13;;;;;;;1999.90;858.57;;;13.70;99.90;;;;;;5099766;28;20445;-79
2021/09/30 08:46:41;;;;;;;1947.50;623.80;;;13.80;99.90;;;;;;5080377;28;20513;-80
2021/09/30 08:49:10;;;;;;;1876.23;570.20;;;13.90;99.90;;;;;;5081339;28;20480;-79
2021/09/30 08:51:39;;;;;;;1999.90;700.57;;;13.90;99.90;;;;;;5081345;28;20499;-79
2021/09/30 08:54:09;;;;;;;1999.90;800.38;;;13.90;99.90;;;;;;5080448;28;20519;-78
2021/09/30 08:56:39;;;;;;;1999.90;790.50;;;14.00;99.90;;;;;;5080792;28;20214;-78
2021/09/30 08:59:15;;;;;;;612.40;197.47;;;14.00;99.90;;;;;;5099195;28;20472;-79
2021/09/30 09:01:46;;;;;;;1999.90;794.17;;;14.10;99.90;;;;;;5078524;28;20956;-78
2021/09/30 09:04:20;;;;;;;1999.90;850.27;;;14.20;99.90;;;;;;5080452;28;20663;-79
2021/09/30 09:06:49;;;;;;;1594.77;473.80;;;14.30;99.90;;;;;;5080696;28;20468;-79
2021/09/30 09:09:25;;;;;;;1797.77;578.13;;;14.30;99.90;;;;;;5099040;28;20452;-79
2021/09/30 09:11:57;;;;;;;1548.47;484.30;;;14.30;99.90;;;;;;5080390;28;20511;-79
2021/09/30 09:14:27;;;;;;;1088.57;395.27;;;14.40;99.90;;;;;;5081478;28;20467;-79
2021/09/30 09:17:00;;;;;;;926.33;329.43;;;14.40;99.90;;;;;;5080768;28;20985;-78
2021/09/30 09:19:30;;;;;;;920.60;329.70;;;14.40;99.90;;;;;;5080982;28;20487;-78
2021/09/30 09:22:08;;;;;;;319.87;170.47;;;14.50;99.90;;;;;;5099836;28;20519;-78
2021/09/30 09:24:37;;;;;;;42.73;38.10;;;14.50;99.90;;;;;;5080655;28;20826;-78
2021/09/30 09:27:06;;;;;;;8.10;7.10;;;14.50;99.90;;;;;;5099406;28;20427;-78
2021/09/30 09:29:35;;;;;;;123.17;50.40;;;14.60;99.90;;;;;;5080457;28;20486;-79
2021/09/30 09:32:06;;;;;;;112.17;64.60;;;14.60;99.90;;;;;;5080125;28;20474;-78
2021/09/30 09:34:38;;;;;;;167.70;49.47;;;14.60;99.90;;;;;;5098721;28;20460;-78
2021/09/30 09:37:29;;;;;;;83.80;48.47;;;14.60;99.90;;;;;;5080314;28;20468;-78
2021/09/30 09:40:00;;;;;;;1999.90;999.90;;;14.60;99.90;;;;;;5079314;28;20946;-78
2021/09/30 09:42:31;;;;;;;98.07;88.63;;;14.70;99.90;;;;;;5098391;28;20239;-79
2021/09/30 09:45:03;;;;;;;8.47;5.40;;;14.70;99.90;;;;;;5099924;28;20425;-78
2021/09/30 09:47:35;;;;;;;8.63;7.73;;;14.70;99.90;;;;;;5098547;28;20424;-78
2021/09/30 09:50:18;;;;;;;7.13;2.70;;;14.80;99.90;;;;;;5098631;28;20421;-78
2021/09/30 09:52:49;;;;;;;9.17;3.57;;;14.80;99.90;;;;;;5080297;28;20489;-78
2021/09/30 09:55:29;;;;;;;6.10;2.57;;;14.80;99.90;;;;;;5080279;28;20488;-78
2021/09/30 09:58:06;;;;;;;7.77;3.30;;;14.80;99.90;;;;;;5079323;28;20960;-78
2021/09/30 10:00:36;;;;;;;8.07;2.43;;;14.90;99.90;;;;;;5079247;28;20440;-77
2021/09/30 10:03:13;;;;;;;6.20;1.80;;;14.90;99.90;;;;;;5080056;28;20451;-78
2021/09/30 10:05:42;;;;;;;10.13;3.27;;;15.00;99.90;;;;;;5080024;28;21005;-78
2021/09/30 10:08:12;;;;;;;6.30;2.60;;;15.00;99.90;;;;;;5080140;28;20933;-78
2021/09/30 10:10:40;;;;;;;6.80;2.00;;;15.00;99.90;;;;;;5080136;28;20447;-79
2021/09/30 10:13:11;;;;;;;6.63;2.57;;;15.10;99.90;;;;;;5080155;28;20448;-79
2021/09/30 10:15:40;;;;;;;9.60;2.30;;;15.10;99.90;;;;;;5080635;28;21033;-79
2021/09/30 10:18:10;;;;;;;8.63;2.90;;;15.20;99.90;;;;;;5079653;28;20870;-78
2021/09/30 10:20:41;;;;;;;8.40;2.50;;;15.20;99.90;;;;;;5080816;28;20440;-79
2021/09/30 10:23:11;;;;;;;7.27;5.20;;;15.20;99.90;;;;;;5098922;28;20415;-80
2021/09/30 10:25:44;;;;;;;10.37;2.30;;;15.30;99.90;;;;;;5099736;28;20464;-79
2021/09/30 10:28:14;;;;;;;5.67;1.93;;;15.30;99.90;;;;;;5081293;28;20440;-79
2021/09/30 10:30:45;;;;;;;1999.90;915.10;;;15.40;99.90;;;;;;5097540;28;20445;-78
2021/09/30 10:33:15;;;;;;;8.10;3.37;;;15.40;99.90;;;;;;5080091;28;20277;-79
2021/09/30 10:35:46;;;;;;;6.77;2.20;;;15.40;99.90;;;;;;5098674;28;20487;-79
2021/09/30 10:38:22;;;;;;;4.87;2.00;;;15.40;99.90;;;;;;5099081;28;20440;-80
2021/09/30 10:41:13;;;;;;;6.67;1.93;;;15.40;99.90;;;;;;5079360;28;20455;-80
2021/09/30 10:43:45;;;;;;;6.13;1.83;;;15.40;99.90;;;;;;5080595;28;20942;-79
2021/09/30 10:46:48;;;;;;;4.63;1.80;;;15.30;99.90;;;;;;5080762;28;20504;-79
2021/09/30 10:49:53;;;;;;;7.20;2.27;;;15.30;99.90;;;;;;5080263;28;20470;-79
2021/09/30 10:52:27;;;;;;;4.90;1.60;;;15.30;99.90;;;;;;5082154;28;20960;-79
2021/09/30 10:55:23;;;;;;;6.87;2.20;;;15.20;99.90;;;;;;5085182;28;20972;-79
2021/09/30 10:57:53;;;;;;;8.30;2.93;;;15.20;99.90;;;;;;5102894;28;20494;-79
2021/09/30 11:01:00;;;;;;;6.20;1.77;;;15.10;99.90;;;;;;5102706;28;20568;-79
2021/09/30 11:03:28;;;;;;;5.57;1.70;;;15.20;99.90;;;;;;5083588;28;20450;-79
2021/09/30 11:06:26;;;;;;;7.60;2.43;;;15.20;99.90;;;;;;5102394;28;20452;-79
2021/09/30 11:09:16;;;;;;;4.73;2.00;;;15.20;99.90;;;;;;5084493;28;20472;-79
2021/09/30 11:11:48;;;;;;;3.90;1.50;;;15.30;99.90;;;;;;5083654;28;20447;-78
2021/09/30 11:14:22;;;;;;;5.83;1.60;;;15.30;99.90;;;;;;5083266;28;20448;-79
2021/09/30 11:16:54;;;;;;;6.43;1.80;;;15.30;99.90;;;;;;5102926;28;20455;-79
2021/09/30 11:19:29;;;;;;;7.50;1.70;;;15.30;99.90;;;;;;5084998;28;20755;-80
2021/09/30 11:22:00;;;;;;;7.60;1.93;;;15.30;99.90;;;;;;5084918;28;20449;-79
2021/09/30 11:24:57;;;;;;;4.90;1.87;;;15.30;99.90;;;;;;5084821;28;20414;-79
2021/09/30 11:27:32;;;;;;;4.13;1.60;;;15.30;99.90;;;;;;5067512;28;20499;-80
2021/09/30 11:30:25;;;;;;;5.90;2.40;;;15.30;99.90;;;;;;5104199;28;20412;-79
2021/09/30 11:32:59;;;;;;;4.83;1.60;;;15.30;99.90;;;;;;5102218;28;20452;-79
2021/09/30 11:35:28;;;;;;;4.93;1.40;;;15.30;99.90;;;;;;5100665;28;20478;-78
2021/09/30 11:37:57;;;;;;;3.27;1.47;;;15.40;99.90;;;;;;5100625;28;20436;-78
2021/09/30 11:40:25;;;;;;;4.33;1.67;;;15.40;99.90;;;;;;5100656;28;20501;-78
2021/09/30 11:42:56;;;;;;;6.07;2.30;;;15.50;99.90;;;;;;5082250;28;20447;-78
2021/09/30 11:45:30;;;;;;;5.63;1.90;;;15.50;99.90;;;;;;5083692;28;20506;-78
2021/09/30 11:48:09;;;;;;;6.77;1.43;;;15.60;99.90;;;;;;5101993;28;20515;-78
2021/09/30 11:50:38;;;;;;;4.00;1.50;;;15.60;99.90;;;;;;5083968;28;20519;-79
2021/09/30 11:53:09;;;;;;;7.97;1.93;;;15.60;99.90;;;;;;5083440;28;20459;-79
2021/09/30 11:55:41;;;;;;;6.15;1.90;;;15.70;99.90;;;;;;5100045;28;20440;-79
2021/09/30 11:58:16;;;;;;;6.23;1.77;;;15.80;99.90;;;;;;5083880;28;20198;-79
2021/09/30 12:00:46;;;;;;;4.67;1.87;;;15.90;99.90;;;;;;5083363;28;20435;-79
2021/09/30 12:03:23;;;;;;;4.53;1.50;;;15.90;99.90;;;;;;5101714;28;20428;-79
2021/09/30 12:05:56;;;;;;;4.97;2.10;;;16.00;99.90;;;;;;5100372;28;20531;-79
2021/09/30 12:08:24;;;;;;;5.13;2.17;;;16.00;99.90;;;;;;5082134;28;20454;-78
2021/09/30 12:11:00;;;;;;;6.33;1.70;;;16.00;99.90;;;;;;5082735;28;20548;-79
2021/09/30 12:13:32;;;;;;;3.83;1.50;;;15.90;99.90;;;;;;5083165;28;20930;-78
2021/09/30 12:16:06;;;;;;;4.97;1.67;;;15.90;99.90;;;;;;5080351;28;20489;-79
2021/09/30 12:18:36;;;;;;;6.00;1.60;;;15.90;99.90;;;;;;5082635;28;20510;-78
2021/09/30 12:21:05;;;;;;;4.87;1.63;;;15.80;99.90;;;;;;5100770;28;20444;-78
2021/09/30 12:23:33;;;;;;;5.70;1.60;;;15.80;99.90;;;;;;5080848;28;20448;-78
2021/09/30 12:26:03;;;;;;;5.90;1.40;;;15.80;99.90;;;;;;5082372;28;20804;-78
2021/09/30 12:28:31;;;;;;;5.90;1.77;;;15.70;99.90;;;;;;5083285;28;20480;-79
2021/09/30 12:31:06;;;;;;;6.30;1.90;;;15.60;99.90;;;;;;5098562;28;20632;-78
2021/09/30 12:33:36;;;;;;;4.00;1.90;;;15.60;99.90;;;;;;5082509;28;20479;-78
2021/09/30 12:36:07;;;;;;;6.65;2.10;;;15.60;99.90;;;;;;5098967;28;20468;-78
2021/09/30 12:38:38;;;;;;;5.20;2.20;;;15.60;99.90;;;;;;5099700;28;20277;-78
2021/09/30 12:41:07;;;;;;;7.20;2.30;;;15.60;99.90;;;;;;5081660;28;20441;-78
2021/09/30 12:43:38;;;;;;;4.70;1.90;;;15.60;99.90;;;;;;5081119;28;20552;-78
2021/09/30 12:46:11;;;;;;;5.27;1.80;;;15.50;99.90;;;;;;5080572;28;20840;-78
2021/09/30 12:48:41;;;;;;;5.70;2.10;;;15.50;99.90;;;;;;5080283;28;20452;-78
2021/09/30 12:51:14;;;;;;;6.67;2.07;;;15.50;99.90;;;;;;5079760;28;20953;-78
2021/09/30 12:53:44;;;;;;;4.97;1.97;;;15.50;99.90;;;;;;5080000;28;20543;-78
2021/09/30 12:56:18;;;;;;;5.67;2.03;;;15.50;99.90;;;;;;5079764;28;20568;-77
2021/09/30 12:58:48;;;;;;;7.03;1.93;;;15.50;99.90;;;;;;5078201;28;20493;-78
2021/09/30 13:01:26;;;;;;;6.30;1.80;;;15.50;99.90;;;;;;5076501;28;20452;-79
2021/09/30 13:04:09;;;;;;;6.13;1.90;;;15.60;99.90;;;;;;5079273;28;21006;-77
2021/09/30 13:06:39;;;;;;;6.27;2.03;;;15.70;99.90;;;;;;5077267;28;20525;-78
2021/09/30 13:09:22;;;;;;;2.90;1.20;;;15.80;99.90;;;;;;5098968;28;20468;-78
2021/09/30 13:11:53;;;;;;;4.97;1.40;;;15.90;99.90;;;;;;5081498;28;20531;-78
2021/09/30 13:14:28;;;;;;;2.90;1.43;;;16.00;99.90;;;;;;5081110;28;20456;-78
2021/09/30 13:17:14;;;;;;;5.20;1.80;;;16.10;99.90;;;;;;5079687;28;20961;-78
2021/09/30 13:19:51;;;;;;;7.33;2.00;;;16.20;99.20;;;;;;5081607;28;20411;-78
2021/09/30 13:22:21;;;;;;;4.57;1.40;;;16.30;99.40;;;;;;5081495;28;20447;-78
2021/09/30 13:24:50;;;;;;;4.93;1.70;;;16.30;99.40;;;;;;5081859;28;20440;-77
2021/09/30 13:27:22;;;;;;;5.17;1.50;;;16.30;99.30;;;;;;5099500;28;20529;-79
2021/09/30 13:29:52;;;;;;;9.23;1.90;;;16.30;99.20;;;;;;5080511;28;20432;-78
2021/09/30 13:32:24;;;;;;;3.57;1.33;;;16.20;99.20;;;;;;5080833;28;20449;-78
2021/09/30 13:34:55;;;;;;;5.20;1.53;;;16.30;99.20;;;;;;5081833;28;20437;-79
2021/09/30 13:37:24;;;;;;;3.40;1.60;;;16.20;99.20;;;;;;5099995;28;20468;-78
2021/09/30 13:39:56;;;;;;;5.90;1.50;;;16.20;99.20;;;;;;5081586;28;20976;-78
2021/09/30 13:42:25;;;;;;;3.63;1.67;;;16.20;99.10;;;;;;5081025;28;20863;-78
2021/09/30 13:44:54;;;;;;;8.07;1.70;;;16.20;99.10;;;;;;5080870;28;20494;-78
2021/09/30 13:47:22;;;;;;;4.40;1.53;;;16.30;99.10;;;;;;5081129;28;20492;-79
2021/09/30 13:49:54;;;;;;;5.07;1.70;;;16.30;99.00;;;;;;5098635;28;20440;-79
2021/09/30 13:52:23;;;;;;;4.93;1.70;;;16.30;98.90;;;;;;5080587;28;20809;-78
2021/09/30 13:54:52;;;;;;;7.78;2.10;;;16.30;98.90;;;;;;5078688;28;20440;-78
2021/09/30 13:57:20;;;;;;;3.90;1.37;;;16.40;98.30;;;;;;5097791;28;20278;-78
2021/09/30 13:59:48;;;;;;;6.85;2.20;;;16.50;98.60;;;;;;5079402;28;20444;-78
2021/09/30 14:02:38;;;;;;;5.20;2.03;;;16.50;98.40;;;;;;5080415;28;20655;-78
2021/09/30 14:05:10;;;;;;;8.77;1.87;;;16.50;98.50;;;;;;5098535;28;20788;-78
2021/09/30 14:07:41;;;;;;;8.10;2.03;;;16.50;98.40;;;;;;5079178;28;20501;-78
2021/09/30 14:10:11;;;;;;;3.90;1.47;;;16.50;98.50;;;;;;5078810;28;20475;-80
2021/09/30 14:12:40;;;;;;;3.87;1.47;;;16.50;98.50;;;;;;5098687;28;20424;-78
2021/09/30 14:15:08;;;;;;;5.83;1.90;;;16.50;98.50;;;;;;5098261;28;20511;-79
2021/09/30 14:17:39;;;;;;;5.60;1.70;;;16.40;98.40;;;;;;5097851;28;20478;-78
2021/09/30 14:20:11;;;;;;;5.70;2.13;;;16.40;98.40;;;;;;5079620;28;20450;-78
2021/09/30 14:22:40;;;;;;;5.17;1.90;;;16.40;98.30;;;;;;5078553;28;20494;-78
2021/09/30 14:25:10;;;;;;;3.47;1.90;;;16.30;98.30;;;;;;5079829;28;20433;-79
2021/09/30 14:27:39;;;;;;;5.97;2.07;;;16.20;98.20;;;;;;5080289;28;20458;-79
2021/09/30 14:30:09;;;;;;;5.17;1.70;;;16.20;98.20;;;;;;5079430;28;20466;-78
2021/09/30 14:32:57;;;;;;;6.90;1.80;;;16.20;98.20;;;;;;5078479;28;20856;-78
2021/09/30 14:35:27;;;;;;;5.60;1.80;;;16.30;98.60;;;;;;5096570;28;20426;-78
2021/09/30 14:37:55;;;;;;;4.90;1.67;;;16.40;97.80;;;;;;5078805;28;20517;-78
2021/09/30 14:40:24;;;;;;;5.73;1.90;;;16.40;97.80;;;;;;5079746;28;20455;-78
2021/09/30 14:42:52;;;;;;;6.17;1.77;;;16.40;97.80;;;;;;5079661;28;20452;-78
2021/09/30 14:45:21;;;;;;;4.53;1.90;;;16.40;97.90;;;;;;5079543;28;20458;-78
2021/09/30 14:47:49;;;;;;;4.80;2.17;;;16.40;97.90;;;;;;5097293;28;20429;-78
2021/09/30 14:50:18;;;;;;;4.97;1.73;;;16.40;97.90;;;;;;5079510;28;20444;-79
2021/09/30 14:52:47;;;;;;;4.83;1.67;;;16.40;97.90;;;;;;5079775;28;20444;-78
2021/09/30 14:55:16;;;;;;;8.10;2.43;;;16.40;97.80;;;;;;5078894;28;20427;-78
2021/09/30 14:57:45;;;;;;;4.60;1.50;;;16.40;97.80;;;;;;5079181;28;20975;-78
2021/09/30 15:00:14;;;;;;;4.37;1.60;;;16.40;97.80;;;;;;5078645;28;20855;-78
2021/09/30 15:02:42;;;;;;;5.70;1.63;;;16.40;97.80;;;;;;5078932;28;20838;-78
2021/09/30 15:05:11;;;;;;;6.40;1.70;;;16.40;97.70;;;;;;5077946;28;20494;-78
2021/09/30 15:07:39;;;;;;;6.23;1.70;;;16.30;97.60;;;;;;5078889;28;20423;-78
2021/09/30 15:10:09;;;;;;;4.55;1.88;;;16.30;97.40;;;;;;5077864;28;20440;-78
2021/09/30 15:12:38;;;;;;;3.27;1.57;;;16.30;97.00;;;;;;5079521;28;20228;-78
2021/09/30 15:15:07;;;;;;;5.17;2.03;;;16.30;97.10;;;;;;5078401;28;20437;-79